Terminal Aerodrome Forecast
Issued by NWS Sterling, VA

Current Version | Previous Version | Text Only | Print | Product List | Glossary On
Versions: 1 2 3 4 5 6 7 8 9 10 11 12 13 14 15 16 17 18
000
FTUS41 KLWX 221300 AAA
TAFMRB
TAF AMD
KMRB 221328Z 2213/2312 00000KT P6SM SCT008
      TEMPO 2213/2215 BKN008
     FM221500 16007KT P6SM BKN050
     FM222200 16006KT P6SM SCT050
     FM230800 00000KT P6SM BKN050
     FM230900 00000KT P6SM BKN030=

USA.gov is the U.S. government's official web portal to all federal, state and local government web resources and services.